Aviation Digital Data Service (ADDS)

Output produced by METARs form (1652 UTC 28 November 2014)
found at http://aviationweather.gov/adds/metars/
 
KAEX 281553Z 14012KT 10SM CLR 09/02 A3040 RMK AO2 SLP298 T00890017